Time;durP1;ratioP1;P1;durP2;ratioP2;P2;SDS_P1;SDS_P2;PMS_P1;PMS_P2;Temp;Humidity;BMP_temperature;BMP_pressure;BME280_temperature;BME280_humidity;BME280_pressure;Samples;Min_cycle;Max_cycle;Signal;HPM_P1;HPM_P2
2023/09/02 00:00:23;;;;;;;3.70;3.00;;;;;;;27.06;36.14;100964.75;104674;1285;69168;-86
2023/09/02 00:02:49;;;;;;;5.70;3.20;;;;;;;27.05;36.03;100965.85;105192;1289;69187;-86
2023/09/02 00:05:14;;;;;;;4.00;3.10;;;;;;;27.06;36.24;100968.27;104941;1288;69354;-86
2023/09/02 00:07:40;;;;;;;3.60;3.10;;;;;;;27.05;36.32;100966.38;104180;1289;69242;-85
2023/09/02 00:10:06;;;;;;;3.70;3.20;;;;;;;27.04;36.12;100967.88;104141;1287;69142;-85
2023/09/02 00:12:31;;;;;;;3.10;2.80;;;;;;;27.05;36.15;100967.05;103918;1288;68142;-85
2023/09/02 00:14:59;;;;;;;5.60;3.40;;;;;;;27.05;36.22;100967.77;103968;1288;69177;-85
2023/09/02 00:17:24;;;;;;;3.70;3.30;;;;;;;27.05;36.28;100966.33;103961;1286;69253;-85
2023/09/02 00:19:50;;;;;;;5.60;3.70;;;;;;;27.04;36.30;100970.52;103938;1288;69250;-90
2023/09/02 00:22:15;;;;;;;3.90;3.50;;;;;;;27.04;36.30;100964.27;104107;1291;69244;-85
2023/09/02 00:24:41;;;;;;;3.40;3.10;;;;;;;27.04;36.22;100968.06;104064;1288;69279;-85
2023/09/02 00:27:06;;;;;;;4.60;3.20;;;;;;;27.03;36.39;100973.08;104043;1285;69254;-85
2023/09/02 00:29:32;;;;;;;3.60;3.30;;;;;;;27.03;36.42;100975.19;103919;1289;69374;-85
2023/09/02 00:31:58;;;;;;;5.00;3.60;;;;;;;27.03;36.28;100976.21;103957;1291;69320;-86
2023/09/02 00:34:24;;;;;;;5.30;3.60;;;;;;;27.03;36.44;100975.77;104199;1286;70285;-85
2023/09/02 00:36:49;;;;;;;4.60;3.90;;;;;;;27.01;36.40;100975.48;103962;1291;73522;-85
2023/09/02 00:39:15;;;;;;;4.20;3.40;;;;;;;27.02;36.53;100974.41;104096;1285;69247;-85
2023/09/02 00:41:47;;;;;;;4.30;3.30;;;;;;;27.01;36.38;100973.61;104121;1289;69326;-85
2023/09/02 00:44:12;;;;;;;4.60;3.50;;;;;;;27.01;36.29;100974.86;104068;1287;69150;-85
2023/09/02 00:46:37;;;;;;;4.20;3.80;;;;;;;27.00;36.33;100976.11;104117;1288;69349;-85
2023/09/02 00:49:03;;;;;;;3.90;3.50;;;;;;;27.00;36.38;100974.56;104120;1288;69286;-84
2023/09/02 00:51:29;;;;;;;6.20;4.00;;;;;;;27.00;36.35;100973.93;104155;1286;71890;-85
2023/09/02 00:53:54;;;;;;;3.80;3.40;;;;;;;27.00;36.36;100973.94;103951;1289;69323;-85
2023/09/02 00:56:20;;;;;;;3.90;3.50;;;;;;;27.00;36.29;100970.63;104227;1288;69254;-85
2023/09/02 00:58:55;;;;;;;4.20;3.50;;;;;;;26.99;36.46;100968.02;103926;1289;69313;-90
2023/09/02 01:01:21;;;;;;;4.50;4.10;;;;;;;26.99;36.45;100970.09;104068;1289;69260;-84
2023/09/02 01:03:46;;;;;;;3.90;3.40;;;;;;;26.98;36.34;100968.09;104147;1289;69240;-85
2023/09/02 01:06:12;;;;;;;4.50;3.50;;;;;;;26.99;36.41;100968.95;104130;1285;69259;-85
2023/09/02 01:08:37;;;;;;;4.10;3.70;;;;;;;26.98;36.40;100971.28;103970;1291;69308;-85
2023/09/02 01:11:03;;;;;;;3.90;3.10;;;;;;;26.98;36.26;100966.64;103911;1286;69307;-85
2023/09/02 01:13:29;;;;;;;3.50;3.20;;;;;;;26.98;36.31;100970.15;104005;1288;69262;-85
2023/09/02 01:15:57;;;;;;;4.10;3.60;;;;;;;26.97;36.39;100970.79;104167;1288;69270;-85
2023/09/02 01:18:23;;;;;;;3.40;3.10;;;;;;;26.97;36.35;100970.48;104203;1287;69189;-85
2023/09/02 01:20:58;;;;;;;3.40;3.10;;;;;;;26.97;36.41;100973.48;104247;1286;69091;-85
2023/09/02 01:23:39;;;;;;;3.80;3.40;;;;;;;26.96;36.44;100972.00;104269;1286;69295;-85
2023/09/02 01:26:34;;;;;;;3.50;3.20;;;;;;;26.96;36.41;100975.93;104182;1287;69092;-84
2023/09/02 01:29:01;;;;;;;3.60;3.00;;;;;;;26.95;36.24;100975.02;104060;1286;69327;-85
2023/09/02 01:31:27;;;;;;;3.70;3.30;;;;;;;26.95;36.32;100974.39;103878;1289;69248;-85
2023/09/02 01:33:52;;;;;;;3.90;3.30;;;;;;;26.96;36.35;100977.02;103807;1285;69261;-85
2023/09/02 01:36:18;;;;;;;3.50;3.20;;;;;;;26.95;36.23;100976.98;103791;1287;69182;-85
2023/09/02 01:38:43;;;;;;;3.20;2.90;;;;;;;26.95;36.25;100978.67;104515;1288;69316;-85
2023/09/02 01:41:09;;;;;;;3.20;2.90;;;;;;;26.95;36.29;100979.36;104636;1285;69240;-86
2023/09/02 01:43:41;;;;;;;3.50;3.10;;;;;;;26.95;36.43;100978.90;103994;1286;69118;-91
2023/09/02 01:46:15;;;;;;;;;;;;;;;26.93;36.13;100980.45;103664;1290;69186;-85
2023/09/02 01:48:40;;;;;;;3.30;3.00;;;;;;;26.91;36.39;100977.81;103699;1290;69389;-85
2023/09/02 01:51:06;;;;;;;3.20;2.90;;;;;;;26.91;36.22;100979.66;103770;1289;67489;-85
2023/09/02 01:53:31;;;;;;;2.80;2.60;;;;;;;26.91;36.40;100980.64;103702;1295;69269;-85
2023/09/02 01:55:57;;;;;;;2.60;2.40;;;;;;;26.91;36.42;100974.67;103875;1291;69333;-86
2023/09/02 01:58:23;;;;;;;3.00;2.70;;;;;;;26.91;36.38;100980.57;103671;1293;69271;-85
2023/09/02 02:00:48;;;;;;;3.50;3.00;;;;;;;26.91;36.46;100979.32;103700;1291;69309;-85
2023/09/02 02:04:06;;;;;;;2.80;2.60;;;;;;;26.90;36.29;100981.51;103687;1291;69456;-85
2023/09/02 02:06:31;;;;;;;4.10;3.00;;;;;;;26.89;36.47;100980.55;103350;1299;74390;-85
2023/09/02 02:09:09;;;;;;;3.30;3.00;;;;;;;26.89;36.48;100977.14;103787;1291;69267;-85
2023/09/02 02:11:35;;;;;;;3.40;3.10;;;;;;;26.89;36.46;100973.01;103723;1291;69262;-85
2023/09/02 02:14:02;;;;;;;3.30;3.00;;;;;;;26.89;36.50;100971.45;103732;1291;69134;-85
2023/09/02 02:19:08;;;;;;;3.20;2.90;;;;;;;26.88;36.41;100972.95;103886;1288;73776;-85
2023/09/02 02:21:33;;;;;;;2.80;2.60;;;;;;;26.89;36.27;100972.69;104095;1294;69268;-85
2023/09/02 02:23:59;;;;;;;3.40;2.70;;;;;;;26.89;36.26;100973.98;104014;1290;71868;-85
2023/09/02 02:26:25;;;;;;;3.30;3.00;;;;;;;26.88;36.42;100978.75;104065;1291;69123;-85
2023/09/02 02:28:50;;;;;;;3.10;2.50;;;;;;;26.89;36.28;100977.95;104891;1293;67398;-85
2023/09/02 02:31:15;;;;;;;2.80;2.60;;;;;;;26.88;36.27;100976.63;104021;1289;68641;-85
2023/09/02 02:33:41;;;;;;;2.70;2.50;;;;;;;26.88;36.26;100973.73;103807;1290;69226;-85
2023/09/02 02:36:09;;;;;;;3.10;2.90;;;;;;;26.88;36.35;100976.58;103907;1290;69202;-85
2023/09/02 02:38:36;;;;;;;3.60;2.90;;;;;;;26.88;36.33;100977.83;103865;1291;69189;-85
2023/09/02 02:41:01;;;;;;;3.30;3.00;;;;;;;26.87;36.29;100977.79;104436;1289;69201;-85
2023/09/02 02:43:33;;;;;;;3.00;2.70;;;;;;;26.87;36.42;100977.36;104043;1290;69837;-90
2023/09/02 02:45:59;;;;;;;3.40;2.90;;;;;;;26.87;36.38;100978.45;103768;1289;69391;-84
2023/09/02 02:48:26;;;;;;;3.20;2.90;;;;;;;26.87;36.27;100978.45;103867;1291;69217;-85
2023/09/02 02:50:52;;;;;;;4.50;3.10;;;;;;;26.87;36.40;100977.46;103850;1288;70297;-85
2023/09/02 02:53:18;;;;;;;3.40;3.10;;;;;;;26.86;36.26;100978.83;103725;1290;69150;-85
2023/09/02 02:55:43;;;;;;;3.50;2.80;;;;;;;26.85;36.30;100980.03;103826;1288;69321;-85
2023/09/02 02:58:09;;;;;;;2.60;2.40;;;;;;;26.85;36.43;100980.71;103631;1289;69221;-85
2023/09/02 03:00:39;;;;;;;3.40;2.90;;;;;;;26.85;36.40;100982.36;103830;1293;69279;-85
2023/09/02 03:03:05;;;;;;;3.30;3.00;;;;;;;26.84;36.37;100979.06;103957;1291;69064;-85
2023/09/02 03:05:36;;;;;;;3.50;3.20;;;;;;;26.84;36.28;100977.20;103854;1288;68251;-85
2023/09/02 03:08:02;;;;;;;5.10;3.30;;;;;;;26.84;36.32;100980.30;103817;1294;69299;-84
2023/09/02 03:10:27;;;;;;;3.20;2.90;;;;;;;26.83;36.25;100983.67;103896;1289;69252;-86
2023/09/02 03:12:52;;;;;;;3.50;3.20;;;;;;;26.83;36.22;100984.51;103781;1290;69269;-85
2023/09/02 03:15:18;;;;;;;2.90;2.60;;;;;;;26.83;36.32;100986.73;103659;1289;69283;-85
2023/09/02 03:17:43;;;;;;;3.20;2.90;;;;;;;26.83;36.29;100986.77;103952;1287;68810;-84
2023/09/02 03:20:09;;;;;;;3.30;2.80;;;;;;;26.83;36.15;100987.71;104250;1291;69240;-85
2023/09/02 03:22:35;;;;;;;5.60;3.40;;;;;;;26.82;36.33;100989.59;104554;1287;69287;-86
2023/09/02 03:25:01;;;;;;;3.70;3.20;;;;;;;26.82;36.16;100990.57;103967;1291;69184;-85
2023/09/02 03:27:26;;;;;;;3.80;3.00;;;;;;;26.82;36.19;100993.41;103996;1288;69250;-85
2023/09/02 03:29:52;;;;;;;3.80;3.20;;;;;;;26.81;36.18;100993.31;104637;1288;69189;-85
2023/09/02 03:32:17;;;;;;;6.00;3.50;;;;;;;26.81;36.05;100993.00;104624;1288;69292;-86
2023/09/02 03:34:43;;;;;;;3.30;2.90;;;;;;;26.81;35.99;100992.49;104268;1288;69229;-85
2023/09/02 03:39:48;;;;;;;6.00;3.40;;;;;;;26.80;35.89;100994.80;103637;1289;370158;-85
2023/09/02 03:42:13;;;;;;;3.60;3.00;;;;;;;26.80;35.89;100996.11;103911;1290;69266;-85
2023/09/02 03:44:39;;;;;;;4.40;3.30;;;;;;;26.80;35.92;100999.92;103737;1289;69276;-85
2023/09/02 03:47:04;;;;;;;3.50;3.20;;;;;;;26.80;35.97;101001.08;103837;1289;69139;-85
2023/09/02 03:49:30;;;;;;;3.80;3.10;;;;;;;26.79;35.75;101000.08;103777;1289;69287;-85
2023/09/02 03:51:55;;;;;;;4.60;3.20;;;;;;;26.79;35.89;101003.90;103706;1293;69747;-85
2023/09/02 03:54:21;;;;;;;3.90;3.10;;;;;;;26.79;35.95;101007.83;103807;1294;69201;-85
2023/09/02 03:56:46;;;;;;;3.80;3.20;;;;;;;26.79;36.08;101010.93;103891;1288;69663;-85
2023/09/02 03:59:12;;;;;;;6.50;3.10;;;;;;;26.78;36.10;101013.31;103875;1288;67270;-85
2023/09/02 04:01:37;;;;;;;3.50;3.20;;;;;;;26.78;35.80;101016.10;103767;1290;69270;-85
2023/09/02 04:06:38;;;;;;;2.80;2.50;;;;;;;26.77;35.94;101023.29;104248;1291;69093;-85
2023/09/02 04:09:05;;;;;;;3.50;3.20;;;;;;;26.77;35.98;101023.85;103971;1288;73585;-85
2023/09/02 04:11:31;;;;;;;3.50;3.10;;;;;;;26.77;35.78;101023.13;104085;1291;69002;-85
2023/09/02 04:13:56;;;;;;;3.80;3.40;;;;;;;26.77;35.95;101025.81;103961;1293;69324;-85
2023/09/02 04:16:22;;;;;;;3.50;3.20;;;;;;;26.77;35.81;101028.19;104091;1290;69183;-86
2023/09/02 04:18:47;;;;;;;6.10;3.70;;;;;;;26.77;35.89;101029.80;103967;1291;69380;-85
2023/09/02 04:21:13;;;;;;;3.80;3.10;;;;;;;26.77;35.78;101034.17;103981;1286;69433;-85
2023/09/02 04:23:41;;;;;;;4.50;3.20;;;;;;;26.77;35.66;101037.39;104066;1288;70588;-85
2023/09/02 04:26:06;;;;;;;4.00;3.30;;;;;;;26.76;35.73;101039.30;104073;1291;69247;-85
2023/09/02 04:28:32;;;;;;;3.50;3.20;;;;;;;26.76;35.69;101037.48;104055;1291;69241;-85
2023/09/02 04:33:38;;;;;;;4.20;3.50;;;;;;;26.76;35.72;101043.39;103768;1291;69265;-85
2023/09/02 04:36:04;;;;;;;3.70;3.30;;;;;;;26.75;35.77;101044.37;103669;1296;67997;-85
2023/09/02 04:38:29;;;;;;;3.70;3.10;;;;;;;26.76;35.75;101047.83;103944;1289;69229;-85
2023/09/02 04:40:55;;;;;;;4.00;2.90;;;;;;;26.75;35.75;101051.70;103740;1291;69303;-85
2023/09/02 04:43:20;;;;;;;4.50;3.50;;;;;;;26.76;35.76;101053.88;103927;1289;69275;-85
2023/09/02 04:45:46;;;;;;;4.50;3.40;;;;;;;26.76;35.78;101056.49;103870;1294;69198;-85
2023/09/02 04:48:12;;;;;;;3.50;3.20;;;;;;;26.76;35.76;101054.74;103871;1292;69226;-85
2023/09/02 04:50:37;;;;;;;3.70;3.20;;;;;;;26.75;35.88;101052.11;103749;1291;69278;-85
2023/09/02 04:53:03;;;;;;;3.70;3.40;;;;;;;26.75;35.73;101051.44;103807;1291;69266;-85
2023/09/02 04:55:29;;;;;;;4.50;3.50;;;;;;;26.75;35.77;101052.08;103742;1290;69205;-85
2023/09/02 04:57:55;;;;;;;4.90;3.40;;;;;;;26.75;35.70;101053.57;103799;1291;69261;-86
2023/09/02 05:00:23;;;;;;;7.90;3.40;;;;;;;26.76;35.69;101059.41;103827;1291;69196;-86
2023/09/02 05:02:48;;;;;;;4.10;3.40;;;;;;;26.75;35.72;101061.05;103771;1291;74402;-85
2023/09/02 05:05:15;;;;;;;6.00;3.60;;;;;;;26.75;35.75;101060.75;103556;1291;69324;-85
2023/09/02 05:07:40;;;;;;;5.10;3.60;;;;;;;26.75;35.75;101061.32;103676;1291;69307;-85
2023/09/02 05:10:06;;;;;;;4.60;3.70;;;;;;;26.74;35.77;101063.08;103661;1291;69338;-85
2023/09/02 05:12:33;;;;;;;5.70;3.60;;;;;;;26.74;35.81;101062.10;103713;1291;69313;-85
2023/09/02 05:15:03;;;;;;;4.70;3.50;;;;;;;26.74;35.72;101058.69;103751;1293;69193;-85
2023/09/02 05:17:30;;;;;;;6.50;3.30;;;;;;;26.74;35.81;101056.58;103615;1291;72805;-85
2023/09/02 05:19:55;;;;;;;3.60;3.30;;;;;;;26.74;35.76;101059.67;103809;1291;71684;-85
2023/09/02 05:22:20;;;;;;;3.90;3.50;;;;;;;26.74;35.74;101055.59;103776;1292;69308;-85
2023/09/02 05:24:55;;;;;;;4.00;3.60;;;;;;;26.74;35.71;101056.98;103770;1294;67905;-90
2023/09/02 05:27:20;;;;;;;6.40;3.50;;;;;;;26.74;35.83;101058.43;103688;1292;74586;-85
2023/09/02 05:29:46;;;;;;;4.90;3.80;;;;;;;26.75;35.71;101058.02;103759;1290;70133;-85
2023/09/02 05:32:15;;;;;;;5.40;3.30;;;;;;;26.74;35.70;101057.59;103614;1288;69319;-85
2023/09/02 05:34:41;;;;;;;4.00;3.40;;;;;;;26.74;35.79;101054.67;103799;1288;69227;-85
2023/09/02 05:37:06;;;;;;;6.60;3.60;;;;;;;26.74;35.88;101055.73;103864;1294;69314;-86
2023/09/02 05:39:32;;;;;;;3.90;3.40;;;;;;;26.74;35.87;101059.52;103958;1291;69215;-85
2023/09/02 05:41:57;;;;;;;5.30;3.30;;;;;;;26.74;35.84;101060.23;103728;1288;69194;-85
2023/09/02 05:44:23;;;;;;;3.30;2.90;;;;;;;26.75;35.74;101057.20;103929;1294;69273;-85
2023/09/02 05:46:49;;;;;;;3.90;3.00;;;;;;;26.75;35.94;101057.60;103994;1287;69157;-85
2023/09/02 05:49:14;;;;;;;3.70;3.30;;;;;;;26.75;35.98;101061.10;103719;1288;69291;-85
2023/09/02 05:51:49;;;;;;;3.60;3.20;;;;;;;26.76;35.81;101061.70;103900;1288;69198;-90
2023/09/02 05:54:16;;;;;;;3.90;3.50;;;;;;;26.76;35.83;101059.55;103858;1289;69151;-85
2023/09/02 05:56:41;;;;;;;3.80;3.40;;;;;;;26.76;35.92;101064.34;103926;1288;69350;-85
2023/09/02 05:59:07;;;;;;;3.70;3.10;;;;;;;26.77;35.88;101066.50;104027;1288;69250;-85
2023/09/02 06:01:32;;;;;;;3.50;3.20;;;;;;;26.77;35.89;101069.80;104020;1291;69250;-85
2023/09/02 06:03:58;;;;;;;3.90;3.40;;;;;;;26.77;35.99;101073.81;103805;1291;69345;-86
2023/09/02 06:06:23;;;;;;;3.50;3.20;;;;;;;26.78;35.96;101074.80;103756;1288;69317;-85
2023/09/02 06:08:49;;;;;;;5.90;3.80;;;;;;;26.79;35.89;101072.93;103793;1295;69242;-85
2023/09/02 06:11:15;;;;;;;3.90;3.30;;;;;;;26.81;35.83;101079.02;103773;1287;69207;-85
2023/09/02 06:13:40;;;;;;;4.20;3.10;;;;;;;26.81;35.76;101080.25;103691;1289;69180;-85
2023/09/02 06:16:06;;;;;;;3.90;3.20;;;;;;;26.82;35.92;101082.92;103732;1290;69258;-85
2023/09/02 06:21:10;;;;;;;4.80;3.50;;;;;;;26.85;35.89;101089.55;104240;1291;72261;-84
2023/09/02 06:23:35;;;;;;;4.10;3.70;;;;;;;26.85;35.89;101090.72;104056;1287;69090;-85
2023/09/02 06:26:01;;;;;;;3.90;3.50;;;;;;;26.85;35.81;101085.66;104108;1287;69262;-85
2023/09/02 06:28:27;;;;;;;6.00;3.90;;;;;;;26.85;35.85;101088.76;103798;1288;69346;-85
2023/09/02 06:30:52;;;;;;;4.90;3.50;;;;;;;26.85;35.88;101089.33;104009;1288;69200;-85
2023/09/02 06:33:20;;;;;;;4.40;3.80;;;;;;;26.86;35.79;101090.23;103740;1291;69238;-84
2023/09/02 06:35:45;;;;;;;5.10;3.40;;;;;;;26.86;35.62;101091.27;104121;1287;69215;-84
2023/09/02 06:38:13;;;;;;;4.30;3.50;;;;;;;26.87;35.61;101093.95;104101;1291;69149;-85
2023/09/02 06:40:39;;;;;;;4.10;3.70;;;;;;;26.89;35.75;101094.13;104138;1289;69589;-85
2023/09/02 06:43:04;;;;;;;3.90;3.60;;;;;;;26.89;35.72;101097.02;104053;1288;69159;-85
2023/09/02 06:45:32;;;;;;;3.70;3.40;;;;;;;26.91;35.58;101096.02;103915;1288;69341;-91
2023/09/02 06:48:04;;;;;;;3.80;3.40;;;;;;;26.91;35.55;101097.77;103892;1288;69155;-84
2023/09/02 06:50:31;;;;;;;4.00;3.40;;;;;;;26.92;35.68;101096.63;104032;1292;69354;-84
2023/09/02 06:52:56;;;;;;;4.10;3.80;;;;;;;26.93;35.57;101094.86;103814;1289;69189;-85
2023/09/02 06:55:22;;;;;;;3.60;3.30;;;;;;;26.94;35.63;101093.18;103892;1290;69307;-84
2023/09/02 06:57:47;;;;;;;4.80;3.60;;;;;;;26.96;35.44;101094.64;104083;1288;69261;-84
2023/09/02 07:00:13;;;;;;;4.00;3.60;;;;;;;26.97;35.48;101092.77;103835;1288;69178;-85
2023/09/02 07:02:39;;;;;;;4.10;3.80;;;;;;;26.98;35.47;101092.71;103979;1291;69221;-85
2023/09/02 07:05:04;;;;;;;4.10;3.50;;;;;;;26.99;35.49;101090.25;104131;1288;69195;-85
2023/09/02 07:07:30;;;;;;;6.00;3.60;;;;;;;26.99;35.54;101090.05;103865;1288;70014;-85
2023/09/02 07:09:55;;;;;;;3.80;3.30;;;;;;;27.00;35.44;101093.70;104026;1288;69173;-85
2023/09/02 07:14:54;;;;;;;3.90;3.50;;;;;;;27.02;35.49;101097.85;104913;1288;72695;-84
2023/09/02 07:17:20;;;;;;;3.90;3.50;;;;;;;27.03;35.52;101098.83;104755;1287;69275;-84
2023/09/02 07:19:45;;;;;;;4.60;3.30;;;;;;;27.04;35.42;101097.46;103996;1285;69401;-85
2023/09/02 07:22:11;;;;;;;4.20;3.70;;;;;;;27.05;35.47;101094.72;104050;1286;69228;-85
2023/09/02 07:24:36;;;;;;;3.50;3.20;;;;;;;27.05;35.40;101092.80;104438;1288;69296;-85
2023/09/02 07:27:02;;;;;;;3.60;3.30;;;;;;;27.06;35.45;101095.31;103892;1288;69282;-85
2023/09/02 07:29:28;;;;;;;4.40;3.20;;;;;;;27.07;35.48;101097.98;103927;1288;69328;-85
2023/09/02 07:31:55;;;;;;;3.90;3.50;;;;;;;27.08;35.44;101095.38;104237;1291;69273;-85
2023/09/02 07:34:20;;;;;;;4.10;3.70;;;;;;;27.09;35.42;101096.92;104241;1287;69247;-86
2023/09/02 07:36:46;;;;;;;4.40;3.20;;;;;;;27.09;35.33;101096.80;104151;1285;69263;-86
2023/09/02 07:39:12;;;;;;;4.20;3.30;;;;;;;27.10;35.49;101099.27;104895;1285;69245;-85
2023/09/02 07:41:38;;;;;;;6.10;3.60;;;;;;;27.09;35.43;101093.70;104243;1291;69713;-85
2023/09/02 07:44:04;;;;;;;3.50;3.10;;;;;;;27.11;35.42;101095.55;104234;1289;67335;-85
2023/09/02 07:46:29;;;;;;;3.50;3.20;;;;;;;27.10;35.39;101092.92;104021;1288;69366;-86
2023/09/02 07:48:55;;;;;;;3.70;3.40;;;;;;;27.12;35.42;101096.27;103915;1287;69165;-86
2023/09/02 07:51:25;;;;;;;4.40;3.40;;;;;;;27.13;35.34;101101.72;103970;1288;69255;-91
2023/09/02 07:53:50;;;;;;;;;;;;;;;27.13;35.40;101103.21;104297;1288;69155;-85
2023/09/02 07:56:16;;;;;;;3.70;3.10;;;;;;;27.12;35.41;101101.52;103803;1286;69219;-85
2023/09/02 07:58:43;;;;;;;4.20;3.50;;;;;;;27.13;35.45;101099.65;103924;1286;69278;-85
2023/09/02 08:01:08;;;;;;;3.50;3.20;;;;;;;27.14;35.40;101098.60;104288;1286;70359;-85
2023/09/02 08:03:34;;;;;;;4.00;3.40;;;;;;;27.14;35.40;101100.00;104313;1288;69242;-85
2023/09/02 08:06:06;;;;;;;4.90;3.60;;;;;;;27.14;35.37;101103.50;104180;1287;69213;-85
2023/09/02 08:08:32;;;;;;;3.50;3.20;;;;;;;27.15;35.39;101104.11;104135;1286;69166;-85
2023/09/02 08:11:04;;;;;;;3.50;3.00;;;;;;;27.16;35.48;101103.33;104113;1292;69256;-85
2023/09/02 08:13:30;;;;;;;4.10;3.40;;;;;;;27.16;35.45;101104.09;104258;1291;67440;-85
2023/09/02 08:15:56;;;;;;;3.60;3.30;;;;;;;27.17;35.50;101107.02;104042;1288;69037;-85
2023/09/02 08:18:22;;;;;;;3.60;3.10;;;;;;;27.18;35.49;101111.05;104257;1288;69216;-86
2023/09/02 08:20:47;;;;;;;4.50;3.30;;;;;;;27.18;35.46;101105.98;104119;1286;69248;-85
2023/09/02 08:23:13;;;;;;;3.60;3.30;;;;;;;27.19;35.50;101106.68;104143;1286;70309;-85
2023/09/02 08:25:38;;;;;;;4.80;3.30;;;;;;;27.20;35.41;101108.43;104069;1293;69411;-85
2023/09/02 08:28:04;;;;;;;3.50;3.20;;;;;;;27.20;35.42;101105.36;104270;1288;69372;-85
2023/09/02 08:30:31;;;;;;;3.60;3.20;;;;;;;27.20;35.33;101104.24;104576;1286;69236;-85
2023/09/02 08:32:56;;;;;;;3.60;3.20;;;;;;;27.20;35.37;101106.09;104134;1288;69148;-85
2023/09/02 08:35:22;;;;;;;4.50;3.30;;;;;;;27.21;35.46;101106.17;103872;1287;69299;-85
2023/09/02 08:37:48;;;;;;;4.60;3.20;;;;;;;27.22;35.47;101105.39;104062;1289;69248;-85
2023/09/02 08:40:14;;;;;;;3.60;3.00;;;;;;;27.22;35.35;101106.00;104184;1287;69194;-85
2023/09/02 08:42:39;;;;;;;5.10;3.20;;;;;;;27.22;35.33;101107.55;103959;1288;69083;-85
2023/09/02 08:45:14;;;;;;;3.40;3.10;;;;;;;27.23;35.42;101113.27;103875;1288;69345;-91
2023/09/02 08:47:39;;;;;;;4.80;2.80;;;;;;;27.23;35.37;101112.86;104179;1288;69013;-85
2023/09/02 08:50:07;;;;;;;3.90;3.00;;;;;;;27.22;35.43;101112.27;104252;1288;69574;-85
2023/09/02 08:52:32;;;;;;;4.00;3.30;;;;;;;27.22;35.35;101112.52;103901;1291;69294;-85
2023/09/02 08:54:58;;;;;;;3.40;3.10;;;;;;;27.21;35.38;101115.95;104171;1291;70399;-85
2023/09/02 08:57:23;;;;;;;3.40;3.10;;;;;;;27.21;35.41;101110.30;104013;1289;69323;-85
2023/09/02 08:59:49;;;;;;;3.50;3.20;;;;;;;27.21;35.40;101110.61;103735;1289;69176;-85
2023/09/02 09:02:14;;;;;;;3.90;3.30;;;;;;;27.22;35.34;101107.70;104213;1291;69272;-85
2023/09/02 09:04:40;;;;;;;4.00;3.20;;;;;;;27.23;35.32;101102.23;103953;1289;69208;-85
2023/09/02 09:07:05;;;;;;;3.20;2.90;;;;;;;27.23;35.29;101104.18;104014;1292;69299;-85
2023/09/02 09:09:32;;;;;;;5.10;3.00;;;;;;;27.24;35.39;101101.23;104109;1289;69251;-85
2023/09/02 09:12:14;;;;;;;3.50;3.20;;;;;;;27.24;35.32;101104.68;103945;1294;69214;-90
2023/09/02 09:14:44;;;;;;;4.60;3.10;;;;;;;27.25;35.32;101104.92;103860;1288;72526;-85
2023/09/02 09:17:10;;;;;;;3.80;2.80;;;;;;;27.25;35.32;101103.48;104110;1289;69405;-85
2023/09/02 09:19:35;;;;;;;3.10;2.80;;;;;;;27.26;35.21;101100.31;103862;1286;69259;-85
2023/09/02 09:22:02;;;;;;;3.30;3.00;;;;;;;27.25;35.18;101102.39;104186;1289;69185;-85
2023/09/02 09:24:29;;;;;;;3.10;2.70;;;;;;;27.26;35.31;101102.85;104099;1289;69256;-85
2023/09/02 09:27:10;;;;;;;3.50;2.90;;;;;;;27.27;35.23;101103.50;104073;1288;69247;-90
2023/09/02 09:29:40;;;;;;;3.10;2.80;;;;;;;27.27;35.15;101106.34;104137;1288;69228;-85
2023/09/02 09:32:11;;;;;;;3.60;3.30;;;;;;;27.28;35.17;101106.48;104024;1292;69254;-85
2023/09/02 09:34:38;;;;;;;3.40;3.10;;;;;;;27.27;35.20;101101.48;104008;1288;69170;-85
2023/09/02 09:37:03;;;;;;;4.40;3.00;;;;;;;27.28;35.13;101103.08;104349;1290;73485;-85
2023/09/02 09:39:42;;;;;;;4.50;2.90;;;;;;;27.28;35.19;101101.73;104259;1286;69275;-85
2023/09/02 09:42:08;;;;;;;3.00;2.70;;;;;;;27.28;35.05;101102.71;104230;1289;69039;-85
2023/09/02 09:44:33;;;;;;;2.90;2.50;;;;;;;27.29;34.99;101104.19;103994;1286;69281;-85
2023/09/02 09:46:59;;;;;;;2.90;2.60;;;;;;;27.29;35.05;101101.70;104136;1289;69202;-85
2023/09/02 09:49:28;;;;;;;4.10;3.00;;;;;;;27.30;35.14;101095.91;104240;1288;69257;-85
2023/09/02 09:52:00;;;;;;;2.80;2.60;;;;;;;27.30;35.03;101100.04;103848;1288;69279;-85
2023/09/02 09:54:39;;;;;;;2.60;2.40;;;;;;;27.30;35.02;101097.92;104054;1288;67881;-85
2023/09/02 09:57:08;;;;;;;2.90;2.70;;;;;;;27.31;34.95;101097.55;104079;1288;69223;-85
2023/09/02 09:59:36;;;;;;;3.00;2.80;;;;;;;27.30;34.91;101097.10;103745;1294;69199;-85
2023/09/02 10:02:04;;;;;;;3.40;2.70;;;;;;;27.31;34.90;101095.17;104187;1288;74949;-85
2023/09/02 10:04:30;;;;;;;4.30;2.80;;;;;;;27.31;34.98;101089.53;104057;1286;69243;-85
2023/09/02 10:07:03;;;;;;;3.20;2.90;;;;;;;27.32;34.90;101088.48;104007;1289;69448;-85
2023/09/02 10:09:42;;;;;;;2.90;2.70;;;;;;;27.33;34.91;101091.36;104142;1288;69158;-85
2023/09/02 10:12:18;;;;;;;3.70;2.90;;;;;;;27.34;34.94;101089.50;104226;1288;69097;-86
2023/09/02 10:14:59;;;;;;;3.70;2.70;;;;;;;27.35;34.99;101082.80;104149;1288;74659;-91
2023/09/02 10:17:24;;;;;;;3.40;2.90;;;;;;;27.36;34.90;101078.55;104540;1289;69237;-86
2023/09/02 10:19:50;;;;;;;3.10;2.80;;;;;;;27.38;34.82;101077.33;104631;1288;69253;-85
2023/09/02 10:22:19;;;;;;;4.00;2.70;;;;;;;27.39;34.80;101075.65;104315;1287;69401;-86
2023/09/02 10:25:05;;;;;;;3.50;3.10;;;;;;;27.40;34.85;101079.67;104035;1288;69198;-85
2023/09/02 10:27:32;;;;;;;2.90;2.70;;;;;;;27.40;34.88;101080.55;104122;1289;74439;-85
2023/09/02 10:29:58;;;;;;;3.10;2.80;;;;;;;27.40;34.84;101079.88;104147;1288;69255;-86
2023/09/02 10:32:26;;;;;;;3.20;2.90;;;;;;;27.41;34.87;101075.92;104153;1287;69220;-85
2023/09/02 10:34:56;;;;;;;3.30;3.00;;;;;;;27.40;34.89;101076.98;103914;1287;69083;-86
2023/09/02 10:37:25;;;;;;;2.70;2.50;;;;;;;27.40;34.95;101074.14;104132;1288;69117;-85
2023/09/02 10:40:10;;;;;;;3.60;2.70;;;;;;;27.41;34.80;101078.05;104063;1289;73547;-85
2023/09/02 10:42:35;;;;;;;3.50;2.90;;;;;;;27.41;34.84;101074.27;104003;1289;69253;-85
2023/09/02 10:45:01;;;;;;;2.70;2.50;;;;;;;27.41;34.90;101072.41;103971;1292;69310;-86
2023/09/02 10:47:26;;;;;;;4.20;3.00;;;;;;;27.42;34.75;101067.66;104116;1290;69132;-85
2023/09/02 10:49:52;;;;;;;3.60;2.80;;;;;;;27.42;34.78;101073.27;104190;1288;69183;-85
2023/09/02 10:52:17;;;;;;;3.80;2.60;;;;;;;27.43;34.87;101073.48;104142;1288;69333;-85
2023/09/02 10:55:02;;;;;;;3.30;2.90;;;;;;;27.43;34.84;101078.23;104236;1291;69292;-85
2023/09/02 10:57:45;;;;;;;4.20;3.00;;;;;;;27.43;34.75;101077.97;104299;1289;69189;-86
2023/09/02 11:00:24;;;;;;;3.00;2.70;;;;;;;27.44;34.87;101074.48;104263;1290;69032;-85
2023/09/02 11:02:53;;;;;;;3.60;2.80;;;;;;;27.45;34.92;101070.01;103977;1288;74453;-85
2023/09/02 11:05:19;;;;;;;4.00;2.80;;;;;;;27.46;34.89;101066.70;104004;1289;69109;-85
2023/09/02 11:07:45;;;;;;;3.10;2.60;;;;;;;27.47;34.74;101063.91;103927;1288;69243;-85
2023/09/02 11:10:11;;;;;;;3.20;2.90;;;;;;;27.48;34.85;101062.73;104067;1289;69227;-85
2023/09/02 11:12:59;;;;;;;3.20;2.60;;;;;;;27.48;34.85;101061.63;104011;1288;69258;-86
2023/09/02 11:15:24;;;;;;;3.30;3.00;;;;;;;27.48;34.97;101063.84;104146;1286;73379;-85
2023/09/02 11:17:50;;;;;;;3.50;2.80;;;;;;;27.49;35.01;101056.86;104131;1289;70432;-86
2023/09/02 11:20:19;;;;;;;3.80;2.70;;;;;;;27.49;34.95;101054.06;104034;1291;69348;-85
2023/09/02 11:22:59;;;;;;;3.00;2.60;;;;;;;27.49;34.87;101055.20;104204;1288;69294;-85
2023/09/02 11:25:27;;;;;;;3.10;2.80;;;;;;;27.49;34.94;101050.34;104177;1291;69202;-85
2023/09/02 11:27:55;;;;;;;5.30;2.80;;;;;;;27.49;35.03;101052.25;104259;1288;74772;-85
2023/09/02 11:30:24;;;;;;;3.30;3.00;;;;;;;27.50;35.01;101048.92;104006;1289;69198;-86
2023/09/02 11:32:50;;;;;;;4.00;3.10;;;;;;;27.50;35.00;101046.14;104121;1291;69249;-85